sensor_id;sensor_type;location;lat;lon;timestamp;temperature;humidity
9662;DHT22;24982;52.344;12.990;2023-11-21T00:00:19;10.90;99.90
9662;DHT22;24982;52.344;12.990;2023-11-21T00:03:21;11.00;99.90
9662;DHT22;24982;52.344;12.990;2023-11-21T00:06:25;11.00;99.90
9662;DHT22;24982;52.344;12.990;2023-11-21T00:09:27;11.00;99.90
9662;DHT22;24982;52.344;12.990;2023-11-21T00:12:29;11.00;99.90
9662;DHT22;24982;52.344;12.990;2023-11-21T00:15:32;11.00;99.90
9662;DHT22;24982;52.344;12.990;2023-11-21T00:18:34;11.00;99.90
9662;DHT22;24982;52.344;12.990;2023-11-21T00:21:37;11.30;99.90
9662;DHT22;24982;52.344;12.990;2023-11-21T00:24:39;11.00;99.90
9662;DHT22;24982;52.344;12.990;2023-11-21T00:27:42;11.10;99.90
9662;DHT22;24982;52.344;12.990;2023-11-21T00:30:44;11.10;99.90
9662;DHT22;24982;52.344;12.990;2023-11-21T00:33:46;11.10;99.90
9662;DHT22;24982;52.344;12.990;2023-11-21T00:36:49;11.20;99.90
9662;DHT22;24982;52.344;12.990;2023-11-21T00:39:51;11.10;99.90
9662;DHT22;24982;52.344;12.990;2023-11-21T00:42:53;11.10;99.90
9662;DHT22;24982;52.344;12.990;2023-11-21T00:45:56;11.20;99.90
9662;DHT22;24982;52.344;12.990;2023-11-21T00:48:59;11.10;99.90
9662;DHT22;24982;52.344;12.990;2023-11-21T00:52:03;11.20;99.90
9662;DHT22;24982;52.344;12.990;2023-11-21T00:55:06;11.20;99.90
9662;DHT22;24982;52.344;12.990;2023-11-21T00:58:09;11.20;99.90
9662;DHT22;24982;52.344;12.990;2023-11-21T01:01:11;11.30;99.90
9662;DHT22;24982;52.344;12.990;2023-11-21T01:04:13;11.30;99.90
9662;DHT22;24982;52.344;12.990;2023-11-21T01:07:16;11.30;99.90
9662;DHT22;24982;52.344;12.990;2023-11-21T01:10:21;11.30;99.90
9662;DHT22;24982;52.344;12.990;2023-11-21T01:13:22;11.20;99.90
9662;DHT22;24982;52.344;12.990;2023-11-21T01:16:28;11.30;99.90
9662;DHT22;24982;52.344;12.990;2023-11-21T01:19:30;11.30;99.90
9662;DHT22;24982;52.344;12.990;2023-11-21T01:22:34;11.30;99.90
9662;DHT22;24982;52.344;12.990;2023-11-21T01:25:36;11.30;99.90
9662;DHT22;24982;52.344;12.990;2023-11-21T01:28:38;11.30;99.90
9662;DHT22;24982;52.344;12.990;2023-11-21T01:31:40;11.20;99.90
9662;DHT22;24982;52.344;12.990;2023-11-21T01:34:42;11.20;99.90
9662;DHT22;24982;52.344;12.990;2023-11-21T01:37:45;11.20;99.90
9662;DHT22;24982;52.344;12.990;2023-11-21T01:40:49;11.60;99.90
9662;DHT22;24982;52.344;12.990;2023-11-21T01:43:50;11.00;99.90
9662;DHT22;24982;52.344;12.990;2023-11-21T01:46:54;10.90;99.90
9662;DHT22;24982;52.344;12.990;2023-11-21T01:49:58;10.90;99.90
9662;DHT22;24982;52.344;12.990;2023-11-21T01:53:02;10.90;99.90
9662;DHT22;24982;52.344;12.990;2023-11-21T01:56:05;10.90;99.90
9662;DHT22;24982;52.344;12.990;2023-11-21T01:59:08;10.80;99.90
9662;DHT22;24982;52.344;12.990;2023-11-21T02:02:11;10.70;99.90
9662;DHT22;24982;52.344;12.990;2023-11-21T02:05:15;10.60;99.90
9662;DHT22;24982;52.344;12.990;2023-11-21T02:08:19;10.60;99.90
9662;DHT22;24982;52.344;12.990;2023-11-21T02:11:21;10.50;99.90
9662;DHT22;24982;52.344;12.990;2023-11-21T02:14:25;10.50;99.90
9662;DHT22;24982;52.344;12.990;2023-11-21T02:17:28;10.50;99.90
9662;DHT22;24982;52.344;12.990;2023-11-21T02:20:31;10.50;99.90
9662;DHT22;24982;52.344;12.990;2023-11-21T02:23:37;10.20;99.90
9662;DHT22;24982;52.344;12.990;2023-11-21T02:26:42;10.50;99.90
9662;DHT22;24982;52.344;12.990;2023-11-21T02:29:44;10.60;99.90
9662;DHT22;24982;52.344;12.990;2023-11-21T02:32:46;10.60;99.90
9662;DHT22;24982;52.344;12.990;2023-11-21T02:35:48;10.60;99.90
9662;DHT22;24982;52.344;12.990;2023-11-21T02:38:53;10.60;99.90
9662;DHT22;24982;52.344;12.990;2023-11-21T02:41:55;10.70;99.90
9662;DHT22;24982;52.344;12.990;2023-11-21T02:44:57;10.60;99.90
9662;DHT22;24982;52.344;12.990;2023-11-21T02:47:59;10.50;99.90
9662;DHT22;24982;52.344;12.990;2023-11-21T02:51:01;10.50;99.90
9662;DHT22;24982;52.344;12.990;2023-11-21T02:54:05;10.50;99.90
9662;DHT22;24982;52.344;12.990;2023-11-21T02:57:09;10.50;99.90
9662;DHT22;24982;52.344;12.990;2023-11-21T03:00:11;10.50;99.90
9662;DHT22;24982;52.344;12.990;2023-11-21T03:03:15;10.40;99.90
9662;DHT22;24982;52.344;12.990;2023-11-21T03:06:18;10.50;99.90
9662;DHT22;24982;52.344;12.990;2023-11-21T03:09:21;10.50;99.90
9662;DHT22;24982;52.344;12.990;2023-11-21T03:12:23;10.50;99.90
9662;DHT22;24982;52.344;12.990;2023-11-21T03:15:25;10.50;99.90
9662;DHT22;24982;52.344;12.990;2023-11-21T03:18:27;10.40;99.90
9662;DHT22;24982;52.344;12.990;2023-11-21T03:21:29;10.40;99.90
9662;DHT22;24982;52.344;12.990;2023-11-21T03:24:33;10.40;99.90
9662;DHT22;24982;52.344;12.990;2023-11-21T03:27:35;10.40;99.90
9662;DHT22;24982;52.344;12.990;2023-11-21T03:30:37;10.40;99.90
9662;DHT22;24982;52.344;12.990;2023-11-21T03:33:39;10.40;99.90
9662;DHT22;24982;52.344;12.990;2023-11-21T03:36:40;10.40;99.90
9662;DHT22;24982;52.344;12.990;2023-11-21T03:39:44;10.30;99.90
9662;DHT22;24982;52.344;12.990;2023-11-21T03:42:46;10.30;99.90
9662;DHT22;24982;52.344;12.990;2023-11-21T03:45:48;10.30;99.90
9662;DHT22;24982;52.344;12.990;2023-11-21T03:48:51;10.90;99.90
9662;DHT22;24982;52.344;12.990;2023-11-21T03:51:53;10.20;99.90
9662;DHT22;24982;52.344;12.990;2023-11-21T03:54:56;10.20;99.90
9662;DHT22;24982;52.344;12.990;2023-11-21T03:57:59;10.30;99.90
9662;DHT22;24982;52.344;12.990;2023-11-21T04:01:00;10.20;99.90
9662;DHT22;24982;52.344;12.990;2023-11-21T04:04:03;10.30;99.90
9662;DHT22;24982;52.344;12.990;2023-11-21T04:07:05;10.20;99.90
9662;DHT22;24982;52.344;12.990;2023-11-21T04:10:09;10.10;99.90
9662;DHT22;24982;52.344;12.990;2023-11-21T04:13:13;10.10;99.90
9662;DHT22;24982;52.344;12.990;2023-11-21T04:16:15;10.10;99.90
9662;DHT22;24982;52.344;12.990;2023-11-21T04:19:17;10.20;99.90
9662;DHT22;24982;52.344;12.990;2023-11-21T04:22:19;10.20;99.90
9662;DHT22;24982;52.344;12.990;2023-11-21T04:25:22;10.20;99.90
9662;DHT22;24982;52.344;12.990;2023-11-21T04:28:24;10.20;99.90
9662;DHT22;24982;52.344;12.990;2023-11-21T04:31:26;10.20;99.90
9662;DHT22;24982;52.344;12.990;2023-11-21T04:34:29;10.20;99.90
9662;DHT22;24982;52.344;12.990;2023-11-21T04:37:31;10.20;99.90
9662;DHT22;24982;52.344;12.990;2023-11-21T04:40:34;10.20;99.90
9662;DHT22;24982;52.344;12.990;2023-11-21T04:43:36;10.20;99.90
9662;DHT22;24982;52.344;12.990;2023-11-21T04:46:38;10.10;99.90
9662;DHT22;24982;52.344;12.990;2023-11-21T04:49:42;10.10;99.90
9662;DHT22;24982;52.344;12.990;2023-11-21T04:52:45;10.10;99.90
9662;DHT22;24982;52.344;12.990;2023-11-21T04:55:48;10.10;99.90
9662;DHT22;24982;52.344;12.990;2023-11-21T04:58:50;10.20;99.90
9662;DHT22;24982;52.344;12.990;2023-11-21T05:01:52;10.20;99.90
9662;DHT22;24982;52.344;12.990;2023-11-21T05:04:54;10.10;99.90
9662;DHT22;24982;52.344;12.990;2023-11-21T05:07:57;10.20;99.90
9662;DHT22;24982;52.344;12.990;2023-11-21T05:11:00;10.30;99.90
9662;DHT22;24982;52.344;12.990;2023-11-21T05:14:02;10.20;99.90
9662;DHT22;24982;52.344;12.990;2023-11-21T05:17:06;10.20;99.90
9662;DHT22;24982;52.344;12.990;2023-11-21T05:20:09;10.20;99.90
9662;DHT22;24982;52.344;12.990;2023-11-21T05:23:12;10.20;99.90
9662;DHT22;24982;52.344;12.990;2023-11-21T05:26:15;10.20;99.90
9662;DHT22;24982;52.344;12.990;2023-11-21T05:29:17;10.20;99.90
9662;DHT22;24982;52.344;12.990;2023-11-21T05:32:19;10.20;99.90
9662;DHT22;24982;52.344;12.990;2023-11-21T05:35:21;10.20;99.90
9662;DHT22;24982;52.344;12.990;2023-11-21T05:38:23;10.10;99.90
9662;DHT22;24982;52.344;12.990;2023-11-21T05:41:26;10.10;99.90
9662;DHT22;24982;52.344;12.990;2023-11-21T05:44:28;10.10;99.90
9662;DHT22;24982;52.344;12.990;2023-11-21T05:47:30;10.10;99.90
9662;DHT22;24982;52.344;12.990;2023-11-21T05:50:33;10.20;99.90
9662;DHT22;24982;52.344;12.990;2023-11-21T05:53:35;10.20;99.90
9662;DHT22;24982;52.344;12.990;2023-11-21T05:56:38;10.10;99.90
9662;DHT22;24982;52.344;12.990;2023-11-21T05:59:40;10.10;99.90
9662;DHT22;24982;52.344;12.990;2023-11-21T06:02:42;10.20;99.90
9662;DHT22;24982;52.344;12.990;2023-11-21T06:05:45;10.10;99.90
9662;DHT22;24982;52.344;12.990;2023-11-21T06:08:48;10.20;99.90
9662;DHT22;24982;52.344;12.990;2023-11-21T06:11:51;10.20;99.90
9662;DHT22;24982;52.344;12.990;2023-11-21T06:14:53;10.20;99.90
9662;DHT22;24982;52.344;12.990;2023-11-21T06:17:56;10.20;99.90
9662;DHT22;24982;52.344;12.990;2023-11-21T06:20:59;10.10;99.90
9662;DHT22;24982;52.344;12.990;2023-11-21T06:24:01;10.10;99.90
9662;DHT22;24982;52.344;12.990;2023-11-21T06:27:05;10.10;99.90
9662;DHT22;24982;52.344;12.990;2023-11-21T06:30:08;10.10;99.90
9662;DHT22;24982;52.344;12.990;2023-11-21T06:33:12;10.10;99.90
9662;DHT22;24982;52.344;12.990;2023-11-21T06:36:14;10.00;99.90
9662;DHT22;24982;52.344;12.990;2023-11-21T06:39:17;10.00;99.90
9662;DHT22;24982;52.344;12.990;2023-11-21T06:42:20;10.00;99.90
9662;DHT22;24982;52.344;12.990;2023-11-21T06:45:22;10.00;99.90
9662;DHT22;24982;52.344;12.990;2023-11-21T06:48:25;10.00;99.90
9662;DHT22;24982;52.344;12.990;2023-11-21T06:51:27;10.00;99.90
9662;DHT22;24982;52.344;12.990;2023-11-21T06:54:30;10.00;99.90
9662;DHT22;24982;52.344;12.990;2023-11-21T06:57:33;10.00;99.90
9662;DHT22;24982;52.344;12.990;2023-11-21T07:00:35;9.90;99.90
9662;DHT22;24982;52.344;12.990;2023-11-21T07:03:37;9.90;99.90
9662;DHT22;24982;52.344;12.990;2023-11-21T07:06:39;9.90;99.90
9662;DHT22;24982;52.344;12.990;2023-11-21T07:09:41;9.90;99.90
9662;DHT22;24982;52.344;12.990;2023-11-21T07:12:45;10.00;99.90
9662;DHT22;24982;52.344;12.990;2023-11-21T07:15:47;9.90;99.90
9662;DHT22;24982;52.344;12.990;2023-11-21T07:18:50;10.00;99.90
9662;DHT22;24982;52.344;12.990;2023-11-21T07:21:52;9.90;99.90
9662;DHT22;24982;52.344;12.990;2023-11-21T07:24:55;9.80;99.90
9662;DHT22;24982;52.344;12.990;2023-11-21T07:28:00;9.80;99.90
9662;DHT22;24982;52.344;12.990;2023-11-21T07:31:04;9.80;99.90
9662;DHT22;24982;52.344;12.990;2023-11-21T07:34:06;9.80;99.90
9662;DHT22;24982;52.344;12.990;2023-11-21T07:37:08;9.80;99.90
9662;DHT22;24982;52.344;12.990;2023-11-21T07:40:11;9.80;99.90
9662;DHT22;24982;52.344;12.990;2023-11-21T07:43:15;9.80;99.90
9662;DHT22;24982;52.344;12.990;2023-11-21T07:46:17;9.70;99.90
9662;DHT22;24982;52.344;12.990;2023-11-21T07:49:20;9.70;99.90
9662;DHT22;24982;52.344;12.990;2023-11-21T07:52:23;9.70;99.90
9662;DHT22;24982;52.344;12.990;2023-11-21T07:55:25;9.70;99.90
9662;DHT22;24982;52.344;12.990;2023-11-21T07:58:29;9.60;99.90
9662;DHT22;24982;52.344;12.990;2023-11-21T08:01:31;9.60;99.90
9662;DHT22;24982;52.344;12.990;2023-11-21T08:04:33;9.20;99.90
9662;DHT22;24982;52.344;12.990;2023-11-21T08:07:36;8.70;99.90
9662;DHT22;24982;52.344;12.990;2023-11-21T08:10:38;8.40;99.90
9662;DHT22;24982;52.344;12.990;2023-11-21T08:13:42;8.10;99.90
9662;DHT22;24982;52.344;12.990;2023-11-21T08:16:43;7.90;99.90
9662;DHT22;24982;52.344;12.990;2023-11-21T08:19:46;7.70;99.90
9662;DHT22;24982;52.344;12.990;2023-11-21T08:22:49;7.60;99.90
9662;DHT22;24982;52.344;12.990;2023-11-21T08:25:53;7.50;99.90
9662;DHT22;24982;52.344;12.990;2023-11-21T08:28:56;7.40;99.90
9662;DHT22;24982;52.344;12.990;2023-11-21T08:31:58;7.40;99.90
9662;DHT22;24982;52.344;12.990;2023-11-21T08:35:01;7.50;99.90
9662;DHT22;24982;52.344;12.990;2023-11-21T08:38:03;7.40;99.90
9662;DHT22;24982;52.344;12.990;2023-11-21T08:41:06;7.30;99.90
9662;DHT22;24982;52.344;12.990;2023-11-21T08:44:10;7.30;99.90
9662;DHT22;24982;52.344;12.990;2023-11-21T08:47:12;7.40;99.90
9662;DHT22;24982;52.344;12.990;2023-11-21T08:50:14;7.30;99.90
9662;DHT22;24982;52.344;12.990;2023-11-21T08:53:17;7.40;99.90
9662;DHT22;24982;52.344;12.990;2023-11-21T08:56:19;7.30;99.90
9662;DHT22;24982;52.344;12.990;2023-11-21T08:59:23;7.20;99.90
9662;DHT22;24982;52.344;12.990;2023-11-21T09:02:26;7.20;99.90
9662;DHT22;24982;52.344;12.990;2023-11-21T09:05:28;7.20;99.90
9662;DHT22;24982;52.344;12.990;2023-11-21T09:08:30;7.30;99.90
9662;DHT22;24982;52.344;12.990;2023-11-21T09:11:32;7.30;99.90
9662;DHT22;24982;52.344;12.990;2023-11-21T09:14:37;7.30;99.90
9662;DHT22;24982;52.344;12.990;2023-11-21T09:17:39;7.30;99.90
9662;DHT22;24982;52.344;12.990;2023-11-21T09:20:42;7.20;99.90
9662;DHT22;24982;52.344;12.990;2023-11-21T09:23:44;7.10;99.90
9662;DHT22;24982;52.344;12.990;2023-11-21T09:26:46;7.60;99.90
9662;DHT22;24982;52.344;12.990;2023-11-21T09:29:50;7.50;99.90
9662;DHT22;24982;52.344;12.990;2023-11-21T09:32:51;7.60;99.90
9662;DHT22;24982;52.344;12.990;2023-11-21T09:35:53;7.40;99.90
9662;DHT22;24982;52.344;12.990;2023-11-21T09:38:55;7.30;99.90
9662;DHT22;24982;52.344;12.990;2023-11-21T09:42:03;7.30;99.90
9662;DHT22;24982;52.344;12.990;2023-11-21T09:45:17;7.30;99.90
9662;DHT22;24982;52.344;12.990;2023-11-21T09:48:20;7.40;99.90
9662;DHT22;24982;52.344;12.990;2023-11-21T09:51:24;7.70;99.90
9662;DHT22;24982;52.344;12.990;2023-11-21T09:54:31;8.00;99.90
9662;DHT22;24982;52.344;12.990;2023-11-21T09:57:33;8.30;99.90
9662;DHT22;24982;52.344;12.990;2023-11-21T10:00:43;8.50;99.90
9662;DHT22;24982;52.344;12.990;2023-11-21T10:03:45;9.30;99.90
9662;DHT22;24982;52.344;12.990;2023-11-21T10:06:48;8.80;99.90
9662;DHT22;24982;52.344;12.990;2023-11-21T10:09:51;8.80;99.90
9662;DHT22;24982;52.344;12.990;2023-11-21T10:12:56;9.00;99.90
9662;DHT22;24982;52.344;12.990;2023-11-21T10:16:00;9.10;99.90
9662;DHT22;24982;52.344;12.990;2023-11-21T10:19:06;9.20;99.90
9662;DHT22;24982;52.344;12.990;2023-11-21T10:22:09;9.30;99.90
9662;DHT22;24982;52.344;12.990;2023-11-21T10:25:12;9.40;99.90
9662;DHT22;24982;52.344;12.990;2023-11-21T10:28:15;9.40;99.90
9662;DHT22;24982;52.344;12.990;2023-11-21T10:31:18;9.40;99.90
9662;DHT22;24982;52.344;12.990;2023-11-21T10:34:20;9.40;99.90
9662;DHT22;24982;52.344;12.990;2023-11-21T10:37:22;9.40;99.90
9662;DHT22;24982;52.344;12.990;2023-11-21T10:40:27;9.50;99.90
9662;DHT22;24982;52.344;12.990;2023-11-21T10:43:29;9.60;99.90
9662;DHT22;24982;52.344;12.990;2023-11-21T10:46:33;9.70;99.90
9662;DHT22;24982;52.344;12.990;2023-11-21T10:49:40;9.60;99.90
9662;DHT22;24982;52.344;12.990;2023-11-21T10:52:45;9.60;99.90
9662;DHT22;24982;52.344;12.990;2023-11-21T10:55:47;9.70;99.90
9662;DHT22;24982;52.344;12.990;2023-11-21T10:58:50;9.70;99.90
9662;DHT22;24982;52.344;12.990;2023-11-21T11:01:54;9.70;99.90
9662;DHT22;24982;52.344;12.990;2023-11-21T11:04:59;9.70;99.90
9662;DHT22;24982;52.344;12.990;2023-11-21T11:08:04;9.70;99.90
9662;DHT22;24982;52.344;12.990;2023-11-21T11:11:07;9.70;99.90
9662;DHT22;24982;52.344;12.990;2023-11-21T11:14:11;9.80;99.90
9662;DHT22;24982;52.344;12.990;2023-11-21T11:17:15;9.80;99.90
9662;DHT22;24982;52.344;12.990;2023-11-21T11:20:17;9.80;99.90
9662;DHT22;24982;52.344;12.990;2023-11-21T11:23:36;9.70;99.90
9662;DHT22;24982;52.344;12.990;2023-11-21T11:26:46;9.60;99.90
9662;DHT22;24982;52.344;12.990;2023-11-21T11:30:06;9.60;99.90
9662;DHT22;24982;52.344;12.990;2023-11-21T11:33:21;9.70;99.90
9662;DHT22;24982;52.344;12.990;2023-11-21T11:36:30;9.70;99.90
9662;DHT22;24982;52.344;12.990;2023-11-21T11:39:36;9.70;99.90
9662;DHT22;24982;52.344;12.990;2023-11-21T11:42:38;9.80;99.90
9662;DHT22;24982;52.344;12.990;2023-11-21T11:45:41;9.80;99.90
9662;DHT22;24982;52.344;12.990;2023-11-21T11:48:44;9.80;99.90
9662;DHT22;24982;52.344;12.990;2023-11-21T11:51:46;9.80;99.90
9662;DHT22;24982;52.344;12.990;2023-11-21T11:54:49;9.80;99.90
9662;DHT22;24982;52.344;12.990;2023-11-21T11:57:53;9.80;99.90
9662;DHT22;24982;52.344;12.990;2023-11-21T12:00:56;9.80;99.90
9662;DHT22;24982;52.344;12.990;2023-11-21T12:04:33;9.90;99.90
9662;DHT22;24982;52.344;12.990;2023-11-21T12:07:47;9.80;99.90
9662;DHT22;24982;52.344;12.990;2023-11-21T12:10:51;9.60;99.90
9662;DHT22;24982;52.344;12.990;2023-11-21T12:13:55;9.80;99.90
9662;DHT22;24982;52.344;12.990;2023-11-21T12:16:57;9.90;99.90
9662;DHT22;24982;52.344;12.990;2023-11-21T12:20:03;9.90;99.90
9662;DHT22;24982;52.344;12.990;2023-11-21T12:23:06;9.90;99.90
9662;DHT22;24982;52.344;12.990;2023-11-21T12:26:09;9.80;99.90
9662;DHT22;24982;52.344;12.990;2023-11-21T12:29:11;9.70;99.90
9662;DHT22;24982;52.344;12.990;2023-11-21T12:32:13;9.80;99.90
9662;DHT22;24982;52.344;12.990;2023-11-21T12:35:20;9.90;99.90
9662;DHT22;24982;52.344;12.990;2023-11-21T12:38:22;9.90;99.90
9662;DHT22;24982;52.344;12.990;2023-11-21T12:41:25;10.00;99.90
9662;DHT22;24982;52.344;12.990;2023-11-21T12:44:27;9.90;99.90
9662;DHT22;24982;52.344;12.990;2023-11-21T12:47:29;9.90;99.90
9662;DHT22;24982;52.344;12.990;2023-11-21T12:50:34;9.90;99.90
9662;DHT22;24982;52.344;12.990;2023-11-21T12:53:38;10.00;99.90
9662;DHT22;24982;52.344;12.990;2023-11-21T12:56:40;10.00;99.90
9662;DHT22;24982;52.344;12.990;2023-11-21T12:59:42;9.80;99.90
9662;DHT22;24982;52.344;12.990;2023-11-21T13:02:47;9.80;99.90
9662;DHT22;24982;52.344;12.990;2023-11-21T13:05:50;9.90;99.90
9662;DHT22;24982;52.344;12.990;2023-11-21T13:08:54;9.80;99.90
9662;DHT22;24982;52.344;12.990;2023-11-21T13:12:00;9.50;99.90
9662;DHT22;24982;52.344;12.990;2023-11-21T13:15:04;9.90;99.90
9662;DHT22;24982;52.344;12.990;2023-11-21T13:18:07;9.90;99.90
9662;DHT22;24982;52.344;12.990;2023-11-21T13:21:12;9.80;99.90
9662;DHT22;24982;52.344;12.990;2023-11-21T13:24:15;9.80;99.90
9662;DHT22;24982;52.344;12.990;2023-11-21T13:27:18;9.80;99.90
9662;DHT22;24982;52.344;12.990;2023-11-21T13:30:20;9.70;99.90
9662;DHT22;24982;52.344;12.990;2023-11-21T13:33:27;9.70;99.90
9662;DHT22;24982;52.344;12.990;2023-11-21T13:36:30;9.70;99.90
9662;DHT22;24982;52.344;12.990;2023-11-21T13:39:34;9.70;99.90
9662;DHT22;24982;52.344;12.990;2023-11-21T13:42:36;9.80;99.90
9662;DHT22;24982;52.344;12.990;2023-11-21T13:45:38;9.80;99.90
9662;DHT22;24982;52.344;12.990;2023-11-21T13:48:41;9.70;99.90
9662;DHT22;24982;52.344;12.990;2023-11-21T13:51:44;9.70;99.90
9662;DHT22;24982;52.344;12.990;2023-11-21T13:54:48;10.20;99.90
9662;DHT22;24982;52.344;12.990;2023-11-21T14:03:58;15.40;99.90
9662;DHT22;24982;52.344;12.990;2023-11-21T14:07:10;14.20;99.90
9662;DHT22;24982;52.344;12.990;2023-11-21T14:10:25;13.10;99.90
9662;DHT22;24982;52.344;12.990;2023-11-21T14:13:27;12.40;99.90
9662;DHT22;24982;52.344;12.990;2023-11-21T14:16:29;11.90;99.90
9662;DHT22;24982;52.344;12.990;2023-11-21T14:19:31;11.50;99.90
9662;DHT22;24982;52.344;12.990;2023-11-21T14:22:35;11.30;99.90
9662;DHT22;24982;52.344;12.990;2023-11-21T14:25:37;11.00;99.90
9662;DHT22;24982;52.344;12.990;2023-11-21T14:28:40;10.80;99.90
9662;DHT22;24982;52.344;12.990;2023-11-21T14:31:42;10.60;99.90
9662;DHT22;24982;52.344;12.990;2023-11-21T14:34:45;10.40;99.90
9662;DHT22;24982;52.344;12.990;2023-11-21T14:37:49;10.50;99.90
9662;DHT22;24982;52.344;12.990;2023-11-21T14:40:51;10.30;99.90
9662;DHT22;24982;52.344;12.990;2023-11-21T14:43:53;10.00;99.90
9662;DHT22;24982;52.344;12.990;2023-11-21T14:46:56;10.10;99.90
9662;DHT22;24982;52.344;12.990;2023-11-21T14:49:59;10.10;99.90
9662;DHT22;24982;52.344;12.990;2023-11-21T14:53:08;9.90;99.90
9662;DHT22;24982;52.344;12.990;2023-11-21T14:56:10;9.80;99.90
9662;DHT22;24982;52.344;12.990;2023-11-21T14:59:18;9.70;99.90
9662;DHT22;24982;52.344;12.990;2023-11-21T15:02:20;9.70;99.90
9662;DHT22;24982;52.344;12.990;2023-11-21T15:05:23;9.80;99.90
9662;DHT22;24982;52.344;12.990;2023-11-21T15:08:27;9.70;99.90
9662;DHT22;24982;52.344;12.990;2023-11-21T15:11:32;9.70;99.90
9662;DHT22;24982;52.344;12.990;2023-11-21T15:14:34;9.70;99.90
9662;DHT22;24982;52.344;12.990;2023-11-21T15:17:37;9.70;99.90
9662;DHT22;24982;52.344;12.990;2023-11-21T15:20:40;9.70;99.90
9662;DHT22;24982;52.344;12.990;2023-11-21T15:23:44;9.70;99.90
9662;DHT22;24982;52.344;12.990;2023-11-21T15:26:46;9.60;99.90
9662;DHT22;24982;52.344;12.990;2023-11-21T15:29:47;9.70;99.90
9662;DHT22;24982;52.344;12.990;2023-11-21T15:32:50;9.70;99.90
9662;DHT22;24982;52.344;12.990;2023-11-21T15:35:53;9.80;99.90
9662;DHT22;24982;52.344;12.990;2023-11-21T15:38:57;9.60;99.90
9662;DHT22;24982;52.344;12.990;2023-11-21T15:41:59;9.50;99.90
9662;DHT22;24982;52.344;12.990;2023-11-21T15:45:02;9.50;99.90
9662;DHT22;24982;52.344;12.990;2023-11-21T15:48:05;9.50;99.90
9662;DHT22;24982;52.344;12.990;2023-11-21T15:51:07;9.50;99.90
9662;DHT22;24982;52.344;12.990;2023-11-21T15:54:14;9.50;99.90
9662;DHT22;24982;52.344;12.990;2023-11-21T15:57:16;9.70;99.90
9662;DHT22;24982;52.344;12.990;2023-11-21T16:00:19;9.60;99.90
9662;DHT22;24982;52.344;12.990;2023-11-21T16:03:23;9.40;99.90
9662;DHT22;24982;52.344;12.990;2023-11-21T16:06:25;9.40;99.90
9662;DHT22;24982;52.344;12.990;2023-11-21T16:09:29;9.40;99.90
9662;DHT22;24982;52.344;12.990;2023-11-21T16:12:31;9.40;99.90
9662;DHT22;24982;52.344;12.990;2023-11-21T16:15:33;9.30;99.90
9662;DHT22;24982;52.344;12.990;2023-11-21T16:18:35;9.30;99.90
9662;DHT22;24982;52.344;12.990;2023-11-21T16:21:37;9.20;99.90
9662;DHT22;24982;52.344;12.990;2023-11-21T16:24:40;9.30;99.90
9662;DHT22;24982;52.344;12.990;2023-11-21T16:27:42;9.20;99.90
9662;DHT22;24982;52.344;12.990;2023-11-21T16:30:45;9.20;99.90
9662;DHT22;24982;52.344;12.990;2023-11-21T16:33:48;9.30;99.90
9662;DHT22;24982;52.344;12.990;2023-11-21T16:36:50;9.20;99.90
9662;DHT22;24982;52.344;12.990;2023-11-21T16:39:53;9.20;99.90
9662;DHT22;24982;52.344;12.990;2023-11-21T16:42:55;9.30;99.90
9662;DHT22;24982;52.344;12.990;2023-11-21T16:45:57;9.50;99.90
9662;DHT22;24982;52.344;12.990;2023-11-21T16:48:59;9.30;99.90
9662;DHT22;24982;52.344;12.990;2023-11-21T16:52:01;9.50;99.90
9662;DHT22;24982;52.344;12.990;2023-11-21T16:55:05;9.30;99.90
9662;DHT22;24982;52.344;12.990;2023-11-21T16:58:10;9.20;99.90
9662;DHT22;24982;52.344;12.990;2023-11-21T17:01:12;9.20;99.90
9662;DHT22;24982;52.344;12.990;2023-11-21T17:04:14;9.40;99.90
9662;DHT22;24982;52.344;12.990;2023-11-21T17:07:17;9.20;99.90
9662;DHT22;24982;52.344;12.990;2023-11-21T17:10:23;9.20;99.90
9662;DHT22;24982;52.344;12.990;2023-11-21T17:13:25;9.10;99.90
9662;DHT22;24982;52.344;12.990;2023-11-21T17:16:28;9.10;99.90
9662;DHT22;24982;52.344;12.990;2023-11-21T17:19:30;9.10;99.90
9662;DHT22;24982;52.344;12.990;2023-11-21T17:22:34;9.10;99.90
9662;DHT22;24982;52.344;12.990;2023-11-21T17:25:38;9.20;99.90
9662;DHT22;24982;52.344;12.990;2023-11-21T17:28:42;9.20;99.90
9662;DHT22;24982;52.344;12.990;2023-11-21T17:31:44;9.10;99.90
9662;DHT22;24982;52.344;12.990;2023-11-21T17:34:46;9.20;99.90
9662;DHT22;24982;52.344;12.990;2023-11-21T17:37:48;9.20;99.90
9662;DHT22;24982;52.344;12.990;2023-11-21T17:40:52;9.30;99.90
9662;DHT22;24982;52.344;12.990;2023-11-21T17:43:54;9.20;99.90
9662;DHT22;24982;52.344;12.990;2023-11-21T17:46:56;9.20;99.90
9662;DHT22;24982;52.344;12.990;2023-11-21T17:49:57;9.30;99.90
9662;DHT22;24982;52.344;12.990;2023-11-21T17:52:59;9.20;99.90
9662;DHT22;24982;52.344;12.990;2023-11-21T17:56:03;9.10;99.90
9662;DHT22;24982;52.344;12.990;2023-11-21T17:59:05;9.10;99.90
9662;DHT22;24982;52.344;12.990;2023-11-21T18:02:08;9.40;99.90
9662;DHT22;24982;52.344;12.990;2023-11-21T18:05:10;9.10;99.90
9662;DHT22;24982;52.344;12.990;2023-11-21T18:08:14;9.00;99.90
9662;DHT22;24982;52.344;12.990;2023-11-21T18:11:17;9.10;99.90
9662;DHT22;24982;52.344;12.990;2023-11-21T18:14:19;9.00;99.90
9662;DHT22;24982;52.344;12.990;2023-11-21T18:17:21;9.00;99.90
9662;DHT22;24982;52.344;12.990;2023-11-21T18:20:23;9.20;99.90
9662;DHT22;24982;52.344;12.990;2023-11-21T18:23:25;9.10;99.90
9662;DHT22;24982;52.344;12.990;2023-11-21T18:26:28;9.20;99.90
9662;DHT22;24982;52.344;12.990;2023-11-21T18:29:30;9.10;99.90
9662;DHT22;24982;52.344;12.990;2023-11-21T18:32:32;9.10;99.90
9662;DHT22;24982;52.344;12.990;2023-11-21T18:35:34;9.00;99.90
9662;DHT22;24982;52.344;12.990;2023-11-21T18:38:38;9.00;99.90
9662;DHT22;24982;52.344;12.990;2023-11-21T18:41:41;8.80;99.90
9662;DHT22;24982;52.344;12.990;2023-11-21T18:44:44;8.80;99.90
9662;DHT22;24982;52.344;12.990;2023-11-21T18:47:47;9.00;99.90
9662;DHT22;24982;52.344;12.990;2023-11-21T18:50:49;8.80;99.90
9662;DHT22;24982;52.344;12.990;2023-11-21T18:53:55;9.00;99.90
9662;DHT22;24982;52.344;12.990;2023-11-21T18:56:58;8.80;99.90
9662;DHT22;24982;52.344;12.990;2023-11-21T19:00:00;8.80;99.90
9662;DHT22;24982;52.344;12.990;2023-11-21T19:06:04;8.60;99.90
9662;DHT22;24982;52.344;12.990;2023-11-21T19:09:06;8.60;99.90
9662;DHT22;24982;52.344;12.990;2023-11-21T21:20:29;8.60;99.90
9662;DHT22;24982;52.344;12.990;2023-11-21T21:23:31;8.50;99.90
9662;DHT22;24982;52.344;12.990;2023-11-21T21:26:33;8.40;99.90
9662;DHT22;24982;52.344;12.990;2023-11-21T21:29:36;8.40;99.90
9662;DHT22;24982;52.344;12.990;2023-11-21T21:32:38;8.30;99.90
9662;DHT22;24982;52.344;12.990;2023-11-21T21:35:41;8.30;99.90
9662;DHT22;24982;52.344;12.990;2023-11-21T21:38:42;8.30;99.90
9662;DHT22;24982;52.344;12.990;2023-11-21T21:41:47;8.30;99.90
9662;DHT22;24982;52.344;12.990;2023-11-21T21:44:50;8.30;99.90